カンクン の空港の天気 - METARとTAF

カンクン国際空港 ( MMUN / CUN ) - メキシコ キンタナ・ロー州カンクン
飛行場実況気象(Metar)
観測時間08/16 00:46 CDT (08/16 05:46 UTC)
風向・風速東北東 3m/s
視程9650m
天気現象弱い雨
全天の4割程度の雲 雲底高度 460m
全天の8割程度の雲 雲底高度 9140m
気温27℃
湿度94%
気圧1016hPa
METARMMUN 160546Z 07005KT 6SM -RA SCT015CB BKN300 27/26 A3000 RMK SLP160 58003 957 60015 8/308 -RA B44
過去の天気等 Google飛行場航空写真 Wunderground天気予報

過去48時間のMETAR

飛行場予報(TAF)
発表時間: 8/16 01:10 CDT (8/16 06:10 UTC)
予報対象時間: 16日1時 CDT ~ 17日7時 CDT
風向・風速東北東 3m/s
視程10km以上
天気現象弱い雨
全天の4割程度の積乱雲 雲底高度 460m
全天の8割程度の雲 雲底高度 9140m
16日2時 CDT から
風向・風速東 3m/s
視程10km以上
全天の4割程度の雲 雲底高度 460m
全天の8割程度の雲 雲底高度 7620m
16日13時 CDT から
風向・風速南東 5m/s
視程10km以上
天気現象煙霧
全天の4割程度の雲 雲底高度 610m
全天の4割程度の雲 雲底高度 9140m
16日14時 CDT ~ 16日18時 CDT に一時的に
視程10km以上
天気現象雷雨
全天の8割程度の積乱雲 雲底高度 460m
16日23時 CDT から
風向・風速南東 3m/s
視程10km以上
天気現象煙霧
全天の4割程度の雲 雲底高度 m
TAF COR MMUN 160610Z 1606/1712 06005KT 6SM -RA SCT015CB BKN300 TX30/1619Z TN24/1612Z
FM160700 08005KT P6SM SCT015 BKN250
FM161800 13010KT 6SM HZ SCT020 SCT300
TEMPO 1619/1623 6SM TSRA BKN015CB
FM170400 13005KT 6SM HZ SCT